Time;durP1;ratioP1;P1;durP2;ratioP2;P2;SDS_P1;SDS_P2;PMS_P1;PMS_P2;Temp;Humidity;BMP_temperature;BMP_pressure;BME280_temperature;BME280_humidity;BME280_pressure;Samples;Min_cycle;Max_cycle;Signal;HPM_P1;HPM_P2
2022/01/29 00:01:56;;;;;;;;;;;6.80;99.90;;;;;;8376487;28;20367;-72
2022/01/29 00:06:04;;;;;;;;;;;6.80;99.90;;;;;;8365828;28;20023;-72
2022/01/29 00:10:12;;;;;;;;;;;6.70;99.90;;;;;;8379912;28;19935;-72
2022/01/29 00:14:18;;;;;;;;;;;6.80;99.90;;;;;;8383083;28;19972;-72
2022/01/29 00:18:21;;;;;;;;;;;6.80;99.90;;;;;;8374482;28;19925;-72
2022/01/29 00:22:23;;;;;;;;;;;6.80;99.90;;;;;;8384620;28;19939;-71
2022/01/29 00:26:26;;;;;;;;;;;6.80;99.90;;;;;;8381127;28;20369;-72
2022/01/29 00:30:37;;;;;;;;;;;6.90;99.90;;;;;;8383272;28;19929;-71
2022/01/29 00:34:39;;;;;;;;;;;6.90;99.90;;;;;;8377413;28;19939;-72
2022/01/29 00:38:41;;;;;;;;;;;6.90;99.90;;;;;;8382099;28;19933;-72
2022/01/29 00:42:43;;;;;;;;;;;6.90;99.90;;;;;;8375442;28;20023;-72
2022/01/29 00:46:44;;;;;;;;;;;6.90;99.90;;;;;;8389923;28;19968;-72
2022/01/29 00:50:46;;;;;;;;;;;6.90;99.90;;;;;;8365852;28;19967;-72
2022/01/29 00:54:47;;;;;;;;;;;6.90;99.90;;;;;;8370512;28;20174;-72
2022/01/29 00:58:49;;;;;;;;;;;6.90;99.90;;;;;;8384925;28;20058;-72
2022/01/29 01:02:50;;;;;;;;;;;6.90;99.90;;;;;;8382108;28;19931;-72
2022/01/29 01:06:52;;;;;;;;;;;6.90;99.90;;;;;;8387766;28;19970;-71
2022/01/29 01:10:54;;;;;;;;;;;6.90;99.90;;;;;;8388639;28;20373;-72
2022/01/29 01:14:55;;;;;;;;;;;6.90;99.90;;;;;;8369793;28;20275;-72
2022/01/29 01:18:57;;;;;;;;;;;6.90;99.90;;;;;;8386156;28;20394;-72
2022/01/29 01:22:59;;;;;;;;;;;6.90;99.90;;;;;;8374844;28;19971;-72
2022/01/29 01:27:00;;;;;;;;;;;7.00;99.90;;;;;;8390178;28;19979;-72
2022/01/29 01:31:02;;;;;;;;;;;7.00;99.90;;;;;;8369229;28;19935;-72
2022/01/29 01:35:20;;;;;;;;;;;7.00;99.90;;;;;;8381878;28;20334;-72
2022/01/29 01:39:27;;;;;;;;;;;7.00;99.90;;;;;;8366416;28;19928;-72
2022/01/29 01:43:29;;;;;;;;;;;6.90;99.90;;;;;;8384857;28;19939;-72
2022/01/29 01:47:30;;;;;;;;;;;7.00;99.90;;;;;;8361472;28;20310;-72
2022/01/29 01:51:32;;;;;;;;;;;7.00;99.90;;;;;;8376610;28;19939;-72
2022/01/29 01:55:34;;;;;;;;;;;6.90;99.90;;;;;;8386679;28;20019;-73
2022/01/29 01:59:35;;;;;;;;;;;6.90;99.90;;;;;;8365743;28;19982;-72
2022/01/29 02:03:37;;;;;;;;;;;6.90;99.90;;;;;;8372840;28;19931;-72
2022/01/29 02:07:39;;;;;;;;;;;6.90;99.90;;;;;;8366515;28;19928;-72
2022/01/29 02:11:51;;;;;;;;;;;7.00;99.90;;;;;;8381677;28;19931;-72
2022/01/29 02:15:54;;;;;;;;;;;6.90;99.90;;;;;;8367377;28;19946;-72
2022/01/29 02:19:56;;;;;;;;;;;7.00;99.90;;;;;;8379359;28;19933;-72
2022/01/29 02:23:57;;;;;;;;;;;7.00;99.90;;;;;;8385506;28;20332;-72
2022/01/29 02:28:04;;;;;;;;;;;7.00;99.90;;;;;;8384266;28;19939;-72
2022/01/29 02:32:06;;;;;;;;;;;7.00;99.90;;;;;;8392975;28;20330;-72
2022/01/29 02:36:08;;;;;;;;;;;7.00;99.90;;;;;;8387990;28;19931;-72
2022/01/29 02:40:09;;;;;;;;;;;7.00;99.90;;;;;;8383003;28;19929;-72
2022/01/29 02:44:15;;;;;;;;;;;7.00;99.90;;;;;;8381665;28;19964;-72
2022/01/29 02:48:17;;;;;;;;;;;7.00;99.90;;;;;;8380958;28;20213;-73
2022/01/29 02:52:18;;;;;;;;;;;7.00;99.90;;;;;;8364519;28;20318;-72
2022/01/29 02:56:20;;;;;;;;;;;7.10;99.90;;;;;;8365822;28;20023;-72
2022/01/29 03:00:22;;;;;;;;;;;7.10;99.90;;;;;;8376156;28;20091;-72
2022/01/29 03:04:24;;;;;;;;;;;7.10;99.90;;;;;;8383423;28;19924;-72
2022/01/29 03:08:25;;;;;;;;;;;7.10;99.90;;;;;;8380453;28;19978;-72
2022/01/29 03:12:27;;;;;;;;;;;7.20;99.90;;;;;;8383556;28;20016;-71
2022/01/29 03:16:30;;;;;;;;;;;7.20;99.90;;;;;;8362995;28;20357;-72
2022/01/29 03:20:32;;;;;;;;;;;7.30;99.90;;;;;;8383377;28;19925;-72
2022/01/29 03:24:34;;;;;;;;;;;7.30;99.90;;;;;;8382562;28;20023;-71
2022/01/29 03:28:36;;;;;;;;;;;7.40;99.90;;;;;;8363868;28;19935;-71
2022/01/29 03:32:37;;;;;;;;;;;7.40;99.90;;;;;;8383072;28;19925;-72
2022/01/29 03:36:39;;;;;;;;;;;7.50;99.90;;;;;;8375422;28;19978;-72
2022/01/29 03:40:41;;;;;;;;;;;7.60;99.90;;;;;;8380977;28;20347;-72
2022/01/29 03:44:43;;;;;;;;;;;7.60;99.90;;;;;;8375497;28;19930;-71
2022/01/29 03:48:44;;;;;;;;;;;7.60;99.90;;;;;;8376080;28;20010;-72
2022/01/29 03:52:46;;;;;;;;;;;7.60;99.90;;;;;;8372343;28;19932;-71
2022/01/29 03:56:48;;;;;;;;;;;7.60;99.90;;;;;;8383925;28;19925;-71
2022/01/29 04:00:49;;;;;;;;;;;7.70;99.90;;;;;;8361677;28;19982;-71
2022/01/29 04:04:51;;;;;;;;;;;7.70;99.90;;;;;;8379816;28;19948;-71
2022/01/29 04:08:52;;;;;;;;;;;7.70;99.90;;;;;;8372116;28;20032;-71
2022/01/29 04:12:55;;;;;;;;;;;7.70;99.90;;;;;;8376853;28;19964;-72
2022/01/29 04:16:56;;;;;;;;;;;7.80;99.90;;;;;;8382124;28;20002;-71
2022/01/29 04:20:58;;;;;;;;;;;7.80;99.90;;;;;;8383657;28;19932;-72
2022/01/29 04:25:00;;;;;;;;;;;7.80;99.90;;;;;;8379549;28;20032;-71
2022/01/29 04:29:04;;;;;;;;;;;7.80;99.90;;;;;;8380318;28;20448;-71
2022/01/29 04:33:39;;;;;;;;;;;7.80;99.90;;;;;;8381482;28;20406;-71
2022/01/29 04:37:33;;;;;;;;;;;7.70;99.90;;;;;;8375485;28;19971;-71
2022/01/29 04:41:35;;;;;;;;;;;7.70;99.90;;;;;;8383067;28;19924;-72
2022/01/29 04:45:36;;;;;;;;;;;7.70;99.90;;;;;;8364241;28;19925;-72
2022/01/29 04:49:38;;;;;;;;;;;7.70;99.90;;;;;;8362236;28;20332;-71
2022/01/29 04:53:40;;;;;;;;;;;7.70;99.90;;;;;;8376090;28;20007;-72
2022/01/29 04:57:42;;;;;;;;;;;7.70;99.90;;;;;;8372322;28;20354;-71
2022/01/29 05:01:43;;;;;;;;;;;7.70;99.90;;;;;;8378231;28;19964;-71
2022/01/29 05:05:45;;;;;;;;;;;7.70;99.90;;;;;;8348821;28;19925;-71
2022/01/29 05:09:47;;;;;;;;;;;7.80;99.90;;;;;;8379138;28;19996;-72
2022/01/29 05:13:48;;;;;;;;;;;7.80;99.90;;;;;;8379350;28;19967;-72
2022/01/29 05:31:10;;;;;;;;;;;7.90;99.90;;;;;;8303992;28;20456;-72
2022/01/29 05:35:12;;;;;;;;;;;7.90;99.90;;;;;;8343967;28;19925;-72
2022/01/29 05:39:14;;;;;;;;;;;8.00;99.90;;;;;;8382647;28;19981;-71
2022/01/29 05:43:16;;;;;;;;;;;8.00;99.90;;;;;;8383502;28;19968;-71
2022/01/29 05:47:18;;;;;;;;;;;8.00;99.90;;;;;;8361436;28;20038;-72
2022/01/29 05:51:19;;;;;;;;;;;8.10;99.90;;;;;;8379194;28;19929;-72
2022/01/29 05:55:22;;;;;;;;;;;8.10;99.90;;;;;;8387747;28;20322;-71
2022/01/29 05:59:24;;;;;;;;;;;8.10;99.90;;;;;;8359862;28;19924;-72
2022/01/29 06:03:25;;;;;;;;;;;8.20;99.90;;;;;;8372619;28;20048;-72
2022/01/29 06:07:27;;;;;;;;;;;8.30;99.90;;;;;;8380755;28;20064;-72
2022/01/29 06:11:28;;;;;;;;;;;8.30;99.90;;;;;;8387367;28;19925;-72
2022/01/29 06:15:35;;;;;;;;;;;8.30;99.90;;;;;;8370616;28;20019;-72
2022/01/29 06:19:36;;;;;;;;;;;8.40;99.90;;;;;;8384315;28;19928;-71
2022/01/29 06:23:39;;;;;;;;;;;8.40;99.90;;;;;;8366022;28;19999;-72
2022/01/29 06:27:40;;;;;;;;;;;8.40;99.90;;;;;;8383842;28;20031;-72
2022/01/29 06:31:42;;;;;;;;;;;8.50;99.90;;;;;;8362195;28;20762;-72
2022/01/29 06:35:43;;;;;;;;;;;8.50;99.90;;;;;;8387520;28;19924;-71
2022/01/29 06:39:45;;;;;;;;;;;8.50;99.90;;;;;;8386393;28;19928;-72
2022/01/29 06:43:47;;;;;;;;;;;8.40;99.90;;;;;;8389444;28;19968;-71
2022/01/29 06:47:49;;;;;;;;;;;8.40;99.90;;;;;;8391813;28;19928;-72
2022/01/29 06:51:53;;;;;;;;;;;8.40;99.90;;;;;;8366367;28;19924;-71
2022/01/29 06:55:54;;;;;;;;;;;8.40;99.90;;;;;;8373364;28;19964;-72
2022/01/29 06:59:56;;;;;;;;;;;8.40;99.90;;;;;;8379711;28;19924;-72
2022/01/29 07:03:57;;;;;;;;;;;8.40;99.90;;;;;;8380899;28;19992;-72
2022/01/29 07:07:59;;;;;;;;;;;8.40;99.90;;;;;;8379311;28;19931;-71
2022/01/29 07:12:08;;;;;;;;;;;8.40;99.90;;;;;;8388178;28;20646;-72
2022/01/29 07:16:10;;;;;;;;;;;8.40;99.90;;;;;;8387787;28;19980;-72
2022/01/29 07:20:12;;;;;;;;;;;8.40;99.90;;;;;;8378068;28;19936;-72
2022/01/29 07:24:13;;;;;;;;;;;8.40;99.90;;;;;;8357985;28;20351;-72
2022/01/29 07:28:15;;;;;;;;;;;8.40;99.90;;;;;;8378549;28;20031;-72
2022/01/29 07:32:17;;;;;;;;;;;8.50;99.90;;;;;;8364918;28;19966;-72
2022/01/29 07:36:19;;;;;;;;;;;8.50;99.90;;;;;;8382225;28;19950;-71
2022/01/29 07:40:21;;;;;;;;;;;8.50;99.90;;;;;;8386852;28;19979;-72
2022/01/29 07:44:23;;;;;;;;;;;8.50;99.90;;;;;;8370030;28;20096;-71
2022/01/29 07:48:24;;;;;;;;;;;8.50;99.90;;;;;;8386601;28;20244;-72
2022/01/29 07:52:27;;;;;;;;;;;8.60;99.90;;;;;;8366652;28;20406;-71
2022/01/29 07:56:29;;;;;;;;;;;8.60;99.90;;;;;;8370899;28;19936;-72
2022/01/29 08:00:30;;;;;;;;;;;8.60;99.90;;;;;;8381831;28;20015;-72
2022/01/29 08:04:32;;;;;;;;;;;8.60;99.90;;;;;;8369199;28;20244;-72
2022/01/29 08:08:34;;;;;;;;;;;8.60;99.90;;;;;;8369692;28;20035;-72
2022/01/29 08:12:35;;;;;;;;;;;8.70;99.90;;;;;;8384184;28;20023;-72
2022/01/29 08:16:37;;;;;;;;;;;8.70;99.90;;;;;;8387192;28;19983;-72
2022/01/29 08:20:38;;;;;;;;;;;8.70;99.90;;;;;;8388738;28;20364;-72
2022/01/29 08:24:40;;;;;;;;;;;8.70;99.90;;;;;;8385821;28;20089;-71
2022/01/29 08:28:42;;;;;;;;;;;8.70;99.90;;;;;;8383156;28;19934;-72
2022/01/29 08:32:43;;;;;;;;;;;8.80;99.90;;;;;;8395820;28;19960;-72
2022/01/29 08:36:45;;;;;;;;;;;8.80;99.90;;;;;;8374431;28;19932;-73
2022/01/29 08:40:46;;;;;;;;;;;8.80;99.90;;;;;;8389795;28;19978;-72
2022/01/29 08:44:48;;;;;;;;;;;8.80;99.90;;;;;;8388388;28;19964;-71
2022/01/29 08:48:50;;;;;;;;;;;8.90;99.90;;;;;;8391007;28;19979;-72
2022/01/29 08:52:52;;;;;;;;;;;8.90;99.90;;;;;;8388843;28;19979;-72
2022/01/29 08:56:53;;;;;;;;;;;8.90;99.90;;;;;;8369565;28;19975;-72
2022/01/29 09:00:55;;;;;;;;;;;9.00;99.90;;;;;;8381192;28;20309;-71
2022/01/29 09:04:57;;;;;;;;;;;9.00;99.90;;;;;;8391908;28;19924;-72
2022/01/29 09:08:59;;;;;;;;;;;9.00;99.90;;;;;;8397677;28;20447;-72
2022/01/29 09:13:01;;;;;;;;;;;9.10;99.90;;;;;;8371714;28;19978;-71
2022/01/29 09:17:03;;;;;;;;;;;9.10;99.90;;;;;;8394375;28;19980;-72
2022/01/29 09:21:05;;;;;;;;;;;9.20;99.90;;;;;;8377183;28;20236;-71
2022/01/29 09:25:07;;;;;;;;;;;9.20;99.90;;;;;;8388917;28;19975;-72
2022/01/29 09:29:08;;;;;;;;;;;9.20;99.90;;;;;;8389135;28;20271;-72
2022/01/29 09:33:11;;;;;;;;;;;9.30;99.90;;;;;;8390731;28;19966;-72
2022/01/29 09:37:13;;;;;;;;;;;9.30;99.90;;;;;;8390235;28;19928;-72
2022/01/29 09:41:15;;;;;;;;;;;9.40;99.90;;;;;;8372726;28;19975;-72
2022/01/29 09:45:18;;;;;;;;;;;9.40;99.90;;;;;;8373049;28;19987;-71
2022/01/29 09:49:19;;;;;;;;;;;9.40;99.90;;;;;;8388684;28;19979;-72
2022/01/29 09:53:21;;;;;;;;;;;9.50;99.90;;;;;;8375193;28;19971;-72
2022/01/29 09:57:23;;;;;;;;;;;9.50;99.90;;;;;;8390018;28;19971;-72
2022/01/29 10:01:24;;;;;;;;;;;9.60;99.90;;;;;;8385833;28;20407;-72
2022/01/29 10:05:33;;;;;;;;;;;9.60;99.90;;;;;;8373575;28;19932;-72
2022/01/29 10:09:35;;;;;;;;;;;9.70;99.90;;;;;;8370018;28;19924;-72
2022/01/29 10:13:37;;;;;;;;;;;9.60;99.90;;;;;;8393262;28;20019;-72
2022/01/29 10:17:53;;;;;;;;;;;9.70;99.90;;;;;;8388897;28;19969;-72
2022/01/29 10:21:55;;;;;;;;;;;9.80;99.90;;;;;;8394543;28;19964;-72
2022/01/29 10:25:56;;;;;;;;;;;9.90;99.90;;;;;;8393356;28;20010;-72
2022/01/29 10:29:59;;;;;;;;;;;9.90;99.90;;;;;;8390808;28;20007;-72
2022/01/29 10:34:13;;;;;;;;;;;10.00;99.90;;;;;;8390385;28;19936;-73
2022/01/29 10:38:17;;;;;;;;;;;10.10;99.90;;;;;;8382731;28;20015;-72
2022/01/29 10:42:27;;;;;;;;;;;10.20;99.90;;;;;;8393636;28;20016;-72
2022/01/29 10:46:30;;;;;;;;;;;10.20;99.90;;;;;;8387489;28;19950;-72
2022/01/29 10:50:33;;;;;;;;;;;10.20;99.90;;;;;;8367708;28;21276;-72
2022/01/29 10:54:36;;;;;;;;;;;10.20;99.90;;;;;;8387891;28;20039;-72
2022/01/29 10:58:41;;;;;;;;;;;10.30;99.90;;;;;;8378924;28;19946;-72
2022/01/29 11:02:44;;;;;;;;;;;10.40;99.90;;;;;;8380842;28;19960;-72
2022/01/29 11:06:47;;;;;;;;;;;10.60;99.90;;;;;;8383915;28;20003;-72
2022/01/29 11:10:48;;;;;;;;;;;10.80;99.90;;;;;;8371069;28;20371;-73
2022/01/29 11:15:07;;;;;;;;;;;10.80;99.90;;;;;;8369864;28;19925;-72
2022/01/29 11:19:09;;;;;;;;;;;10.90;99.90;;;;;;8366270;28;20019;-72
2022/01/29 11:23:11;;;;;;;;;;;10.80;99.90;;;;;;8385452;28;20019;-72
2022/01/29 11:27:19;;;;;;;;;;;10.80;99.90;;;;;;8385762;28;19971;-72
2022/01/29 11:31:21;;;;;;;;;;;10.70;99.90;;;;;;8389273;28;19925;-72
2022/01/29 11:35:30;;;;;;;;;;;10.70;99.90;;;;;;8371911;28;19973;-72
2022/01/29 11:39:34;;;;;;;;;;;10.70;99.90;;;;;;8372825;28;19930;-72
2022/01/29 11:43:36;;;;;;;;;;;10.70;99.90;;;;;;8386591;28;20403;-72
2022/01/29 11:47:37;;;;;;;;;;;10.70;99.90;;;;;;8383975;28;19986;-73
2022/01/29 11:51:40;;;;;;;;;;;10.70;99.90;;;;;;8389263;28;19928;-72
2022/01/29 11:55:42;;;;;;;;;;;10.80;99.90;;;;;;8384254;28;20372;-73
2022/01/29 11:59:44;;;;;;;;;;;10.90;99.90;;;;;;8386015;28;19978;-72
2022/01/29 12:03:45;;;;;;;;;;;10.90;99.90;;;;;;8365417;28;19986;-73
2022/01/29 12:08:04;;;;;;;;;;;10.90;99.90;;;;;;8383598;28;19950;-73
2022/01/29 12:12:28;;;;;;;;;;;11.00;99.90;;;;;;8364757;28;19970;-72
2022/01/29 12:16:49;;;;;;;;;;;11.10;99.90;;;;;;8365882;28;19980;-72
2022/01/29 12:20:51;;;;;;;;;;;11.10;99.90;;;;;;8372553;28;20425;-72
2022/01/29 12:24:53;;;;;;;;;;;11.10;99.90;;;;;;8383320;28;20398;-72
2022/01/29 12:28:55;;;;;;;;;;;11.10;99.90;;;;;;8363076;28;20053;-73
2022/01/29 12:32:57;;;;;;;;;;;11.10;99.90;;;;;;8371237;28;19924;-72
2022/01/29 12:37:09;;;;;;;;;;;11.10;99.90;;;;;;8368840;28;19929;-72
2022/01/29 12:41:12;;;;;;;;;;;11.30;99.90;;;;;;8390161;28;20028;-72
2022/01/29 12:45:19;;;;;;;;;;;11.40;99.90;;;;;;8388075;28;20019;-72
2022/01/29 12:49:21;;;;;;;;;;;11.40;99.90;;;;;;8381564;28;19928;-72
2022/01/29 12:53:23;;;;;;;;;;;11.40;99.90;;;;;;8393447;28;19968;-72
2022/01/29 12:57:41;;;;;;;;;;;11.30;99.90;;;;;;8388342;28;20035;-73
2022/01/29 13:01:44;;;;;;;;;;;11.30;99.90;;;;;;8351688;28;19944;-73
2022/01/29 13:05:46;;;;;;;;;;;11.30;99.90;;;;;;8385828;28;19947;-72
2022/01/29 13:09:53;;;;;;;;;;;11.40;99.90;;;;;;8382472;28;19960;-72
2022/01/29 13:13:55;;;;;;;;;;;11.60;99.90;;;;;;8385405;28;19932;-73
2022/01/29 13:17:57;;;;;;;;;;;11.60;99.90;;;;;;8386403;28;20255;-72
2022/01/29 13:22:07;;;;;;;;;;;11.60;99.90;;;;;;8370998;28;19968;-72
2022/01/29 13:26:15;;;;;;;;;;;11.60;99.90;;;;;;8389262;28;19971;-72
2022/01/29 13:30:21;;;;;;;;;;;11.40;99.90;;;;;;8386528;28;19971;-72
2022/01/29 13:34:25;;;;;;;;;;;11.30;99.90;;;;;;8378863;28;19940;-73
2022/01/29 13:38:29;;;;;;;;;;;11.30;99.90;;;;;;8379682;28;19972;-72
2022/01/29 13:42:34;;;;;;;;;;;11.20;99.90;;;;;;8385963;28;19931;-72
2022/01/29 13:46:36;;;;;;;;;;;11.20;99.90;;;;;;8367784;28;20633;-72
2022/01/29 13:50:41;;;;;;;;;;;11.10;99.90;;;;;;8403382;28;19967;-72
2022/01/29 13:54:43;;;;;;;;;;;11.20;99.90;;;;;;8403060;28;19932;-72
2022/01/29 13:58:50;;;;;;;;;;;11.10;99.90;;;;;;8389262;28;19990;-73
2022/01/29 14:02:52;;;;;;;;;;;11.10;99.90;;;;;;8368595;28;19987;-72
2022/01/29 14:06:58;;;;;;;;;;;11.20;99.90;;;;;;8391002;28;19932;-72
2022/01/29 14:11:00;;;;;;;;;;;11.20;99.90;;;;;;8375681;28;19925;-72
2022/01/29 14:15:12;;;;;;;;;;;11.20;99.90;;;;;;8391143;28;20411;-72
2022/01/29 14:19:18;;;;;;;;;;;11.30;99.90;;;;;;8372411;28;19928;-72
2022/01/29 14:23:19;;;;;;;;;;;11.30;99.90;;;;;;8383882;28;19931;-72
2022/01/29 14:27:41;;;;;;;;;;;11.30;99.90;;;;;;8388509;28;19924;-73
2022/01/29 14:31:43;;;;;;;;;;;11.30;99.90;;;;;;8388025;28;19939;-73
2022/01/29 14:35:45;;;;;;;;;;;11.30;99.90;;;;;;8387876;28;19928;-72
2022/01/29 14:39:50;;;;;;;;;;;11.30;99.90;;;;;;8389623;28;20007;-73
2022/01/29 14:43:52;;;;;;;;;;;11.40;99.90;;;;;;8394940;28;19939;-73
2022/01/29 14:47:53;;;;;;;;;;;11.50;99.90;;;;;;8392855;28;20409;-73
2022/01/29 14:51:56;;;;;;;;;;;11.50;99.90;;;;;;8384389;28;20015;-72
2022/01/29 14:55:57;;;;;;;;;;;11.50;99.90;;;;;;8398282;28;20383;-72
2022/01/29 14:59:59;;;;;;;;;;;11.40;99.90;;;;;;8381526;28;20024;-72
2022/01/29 15:04:02;;;;;;;;;;;11.40;99.90;;;;;;8387163;28;19960;-72
2022/01/29 15:08:05;;;;;;;;;;;11.40;99.90;;;;;;8390053;28;20007;-73
2022/01/29 15:12:07;;;;;;;;;;;11.30;99.90;;;;;;8387326;28;19924;-72
2022/01/29 15:16:09;;;;;;;;;;;11.20;99.90;;;;;;8386939;28;19928;-73
2022/01/29 15:20:10;;;;;;;;;;;11.20;99.90;;;;;;8383238;28;19928;-72
2022/01/29 15:24:12;;;;;;;;;;;11.20;99.90;;;;;;8382954;28;19947;-73
2022/01/29 15:28:15;;;;;;;;;;;11.20;99.90;;;;;;8366292;28;19932;-72
2022/01/29 15:32:17;;;;;;;;;;;11.20;99.90;;;;;;8380773;28;19960;-73
2022/01/29 15:36:19;;;;;;;;;;;11.20;99.90;;;;;;8381542;28;19938;-72
2022/01/29 15:40:24;;;;;;;;;;;11.10;99.90;;;;;;8388409;28;19935;-72
2022/01/29 15:44:25;;;;;;;;;;;11.10;99.90;;;;;;8385991;28;19925;-73
2022/01/29 15:48:28;;;;;;;;;;;11.10;99.90;;;;;;8363596;28;19947;-73
2022/01/29 15:52:32;;;;;;;;;;;11.10;99.90;;;;;;8378605;28;19939;-72
2022/01/29 15:56:42;;;;;;;;;;;11.10;99.90;;;;;;8356020;28;19936;-73
2022/01/29 16:00:54;;;;;;;;;;;11.10;99.90;;;;;;8366434;28;20347;-73
2022/01/29 16:04:56;;;;;;;;;;;11.20;99.90;;;;;;8366892;28;19935;-73
2022/01/29 16:08:58;;;;;;;;;;;11.20;99.90;;;;;;8370925;28;19948;-73
2022/01/29 16:13:00;;;;;;;;;;;11.30;99.90;;;;;;8336975;28;21645;-73
2022/01/29 16:17:02;;;;;;;;;;;11.40;99.90;;;;;;8379455;28;19935;-73
2022/01/29 16:21:04;;;;;;;;;;;11.40;99.90;;;;;;8350686;28;20093;-73
2022/01/29 16:25:06;;;;;;;;;;;11.40;99.90;;;;;;8373932;28;19925;-73
2022/01/29 16:29:08;;;;;;;;;;;11.40;99.90;;;;;;8339114;28;19932;-73
2022/01/29 16:33:10;;;;;;;;;;;11.40;99.90;;;;;;8361456;28;20333;-73
2022/01/29 16:37:12;;;;;;;;;;;11.40;99.90;;;;;;8337197;28;19932;-73
2022/01/29 16:41:14;;;;;;;;;;;11.30;99.90;;;;;;8341129;28;20011;-73
2022/01/29 16:45:16;;;;;;;;;;;11.30;99.90;;;;;;8357692;28;19933;-73
2022/01/29 16:49:18;;;;;;;;;;;11.30;99.90;;;;;;8363035;28;19932;-73
2022/01/29 16:53:21;;;;;;;;;;;11.30;99.90;;;;;;8360909;28;19925;-73
2022/01/29 16:57:26;;;;;;;;;;;11.20;99.90;;;;;;8359974;28;19952;-73
2022/01/29 17:01:27;;;;;;;;;;;11.20;99.90;;;;;;8338590;28;19933;-73
2022/01/29 17:05:29;;;;;;;;;;;11.30;99.90;;;;;;8355970;28;19983;-73
2022/01/29 17:09:31;;;;;;;;;;;11.30;99.90;;;;;;8353509;28;19924;-73
2022/01/29 17:13:33;;;;;;;;;;;11.30;99.90;;;;;;8356411;28;19925;-73
2022/01/29 17:17:34;;;;;;;;;;;11.30;99.90;;;;;;8356781;28;20035;-73
2022/01/29 17:21:36;;;;;;;;;;;11.20;99.90;;;;;;8354396;28;19932;-73
2022/01/29 17:25:37;;;;;;;;;;;11.20;99.90;;;;;;8355844;28;20101;-73
2022/01/29 17:29:39;;;;;;;;;;;11.20;99.90;;;;;;8359238;28;20388;-73
2022/01/29 17:33:40;;;;;;;;;;;11.10;99.90;;;;;;8347224;28;19979;-73
2022/01/29 17:37:42;;;;;;;;;;;11.00;99.90;;;;;;8370571;28;19960;-73
2022/01/29 17:41:44;;;;;;;;;;;10.90;99.90;;;;;;8363787;28;19944;-73
2022/01/29 17:45:46;;;;;;;;;;;10.80;99.90;;;;;;8367742;28;19956;-73
2022/01/29 17:49:48;;;;;;;;;;;10.70;99.90;;;;;;8345804;28;20402;-73
2022/01/29 17:53:49;;;;;;;;;;;10.60;99.90;;;;;;8364828;28;19933;-73
2022/01/29 17:57:51;;;;;;;;;;;10.60;99.90;;;;;;8356699;28;20079;-73
2022/01/29 18:01:52;;;;;;;;;;;10.50;99.90;;;;;;8363531;28;20582;-73
2022/01/29 18:05:54;;;;;;;;;;;10.50;99.90;;;;;;8360521;28;19943;-73
2022/01/29 18:10:00;;;;;;;;;;;10.40;99.90;;;;;;8360866;28;20403;-73
2022/01/29 18:14:02;;;;;;;;;;;10.40;99.90;;;;;;8369565;28;19968;-73
2022/01/29 18:18:03;;;;;;;;;;;10.40;99.90;;;;;;8370554;28;20027;-72
2022/01/29 18:22:05;;;;;;;;;;;10.30;99.90;;;;;;8362246;28;20008;-72
2022/01/29 18:26:09;;;;;;;;;;;10.30;99.90;;;;;;8375636;28;19929;-73
2022/01/29 18:30:12;;;;;;;;;;;10.30;99.90;;;;;;8362976;28;20011;-72
2022/01/29 18:34:14;;;;;;;;;;;10.20;99.90;;;;;;8344376;28;20011;-72
2022/01/29 18:38:17;;;;;;;;;;;10.10;99.90;;;;;;8340998;28;19947;-72
2022/01/29 18:42:19;;;;;;;;;;;10.10;99.90;;;;;;8355934;28;19959;-73
2022/01/29 18:46:20;;;;;;;;;;;10.00;99.90;;;;;;8359745;28;19983;-73
2022/01/29 18:50:22;;;;;;;;;;;10.00;99.90;;;;;;8368331;28;20452;-72
2022/01/29 18:54:28;;;;;;;;;;;9.90;99.90;;;;;;8360474;28;19932;-72
2022/01/29 18:58:30;;;;;;;;;;;9.80;99.90;;;;;;8364686;28;20421;-72
2022/01/29 19:02:31;;;;;;;;;;;9.80;99.90;;;;;;8361850;28;20418;-72
2022/01/29 19:06:33;;;;;;;;;;;9.70;99.90;;;;;;8354916;28;19929;-72
2022/01/29 19:10:40;;;;;;;;;;;9.70;99.90;;;;;;8360866;28;20365;-72
2022/01/29 19:14:44;;;;;;;;;;;9.60;99.90;;;;;;8364684;28;19932;-72
2022/01/29 19:18:46;;;;;;;;;;;9.60;99.90;;;;;;8357877;28;20027;-72
2022/01/29 19:22:49;;;;;;;;;;;9.60;99.90;;;;;;8362540;28;20455;-73
2022/01/29 19:26:51;;;;;;;;;;;9.60;99.90;;;;;;8351042;28;19933;-72
2022/01/29 19:30:52;;;;;;;;;;;9.70;99.90;;;;;;8344038;28;20007;-72
2022/01/29 19:34:54;;;;;;;;;;;9.70;99.90;;;;;;8361786;28;20008;-73
2022/01/29 19:38:55;;;;;;;;;;;9.60;99.90;;;;;;8354715;28;20493;-72
2022/01/29 19:42:57;;;;;;;;;;;9.70;99.90;;;;;;8360250;28;19925;-72
2022/01/29 19:46:58;;;;;;;;;;;9.60;99.90;;;;;;8356390;28;19967;-72
2022/01/29 19:51:00;;;;;;;;;;;9.60;99.90;;;;;;8361274;28;20384;-72
2022/01/29 19:55:02;;;;;;;;;;;9.60;99.90;;;;;;8363575;28;20330;-73
2022/01/29 19:59:05;;;;;;;;;;;9.50;99.90;;;;;;8359389;28;20019;-72
2022/01/29 20:03:07;;;;;;;;;;;9.50;99.90;;;;;;8362315;28;19933;-72
2022/01/29 20:07:09;;;;;;;;;;;9.50;99.90;;;;;;8357615;28;19968;-72
2022/01/29 20:11:15;;;;;;;;;;;9.40;99.90;;;;;;8368215;28;20031;-72
2022/01/29 20:15:16;;;;;;;;;;;9.40;99.90;;;;;;8343486;28;19937;-73
2022/01/29 20:19:18;;;;;;;;;;;9.30;99.90;;;;;;8356691;28;20008;-72
2022/01/29 20:23:19;;;;;;;;;;;9.30;99.90;;;;;;8350213;28;20011;-72
2022/01/29 20:27:21;;;;;;;;;;;9.20;99.90;;;;;;8350546;28;19932;-73
2022/01/29 20:31:23;;;;;;;;;;;9.20;99.90;;;;;;8360089;28;19987;-72
2022/01/29 20:35:24;;;;;;;;;;;9.20;99.90;;;;;;8357864;28;19932;-73
2022/01/29 20:39:26;;;;;;;;;;;9.20;99.90;;;;;;8354927;28;19964;-72
2022/01/29 20:43:27;;;;;;;;;;;9.10;99.90;;;;;;8340557;28;19960;-72
2022/01/29 20:47:30;;;;;;;;;;;9.10;99.90;;;;;;8353333;28;19932;-72
2022/01/29 20:51:32;;;;;;;;;;;9.10;99.90;;;;;;8354934;28;20587;-72
2022/01/29 20:55:34;;;;;;;;;;;9.10;99.90;;;;;;8358600;28;20035;-71
2022/01/29 20:59:35;;;;;;;;;;;9.00;99.90;;;;;;8357382;28;19934;-72
2022/01/29 21:03:38;;;;;;;;;;;9.00;99.90;;;;;;8361487;28;20402;-72
2022/01/29 21:07:40;;;;;;;;;;;9.00;99.90;;;;;;8361760;28;19933;-72
2022/01/29 21:11:42;;;;;;;;;;;9.00;99.90;;;;;;8361654;28;20400;-72
2022/01/29 21:15:43;;;;;;;;;;;9.00;99.90;;;;;;8363639;28;20295;-72
2022/01/29 21:19:45;;;;;;;;;;;9.10;99.90;;;;;;8361333;28;19939;-72
2022/01/29 21:23:49;;;;;;;;;;;9.00;99.90;;;;;;8360881;28;20043;-73
2022/01/29 21:27:50;;;;;;;;;;;9.00;99.90;;;;;;8358403;28;19933;-72
2022/01/29 21:31:53;;;;;;;;;;;9.00;99.90;;;;;;8360774;28;19931;-72
2022/01/29 21:35:54;;;;;;;;;;;9.00;99.90;;;;;;8360586;28;19929;-72
2022/01/29 21:39:56;;;;;;;;;;;9.00;99.90;;;;;;8362396;28;19935;-72
2022/01/29 21:43:57;;;;;;;;;;;8.90;99.90;;;;;;8343432;28;19933;-72
2022/01/29 21:47:59;;;;;;;;;;;8.90;99.90;;;;;;8355361;28;19938;-72
2022/01/29 21:52:02;;;;;;;;;;;8.90;99.90;;;;;;8360017;28;20029;-72
2022/01/29 21:56:04;;;;;;;;;;;8.80;99.90;;;;;;8355155;28;20027;-72
2022/01/29 22:00:06;;;;;;;;;;;8.70;99.90;;;;;;8361573;28;19982;-72
2022/01/29 22:04:07;;;;;;;;;;;8.70;99.90;;;;;;8377023;28;19967;-72
2022/01/29 22:08:09;;;;;;;;;;;8.60;99.90;;;;;;8396083;28;19967;-72
2022/01/29 22:12:10;;;;;;;;;;;8.50;99.90;;;;;;8386381;28;19924;-72
2022/01/29 22:16:12;;;;;;;;;;;8.50;99.90;;;;;;8392432;28;19931;-72
2022/01/29 22:20:14;;;;;;;;;;;8.40;99.90;;;;;;8379808;28;19924;-72
2022/01/29 22:24:15;;;;;;;;;;;8.40;99.90;;;;;;8398034;28;19924;-72
2022/01/29 22:28:17;;;;;;;;;;;8.30;99.90;;;;;;8374989;28;19956;-72
2022/01/29 22:32:19;;;;;;;;;;;8.30;99.90;;;;;;8401021;28;20015;-72
2022/01/29 22:36:21;;;;;;;;;;;8.20;99.90;;;;;;8392629;28;19967;-73
2022/01/29 22:40:23;;;;;;;;;;;8.20;99.90;;;;;;8387522;28;19933;-72
2022/01/29 22:44:25;;;;;;;;;;;8.10;99.90;;;;;;8393097;28;20398;-72
2022/01/29 22:48:26;;;;;;;;;;;8.10;99.90;;;;;;8375716;28;20315;-73
2022/01/29 22:52:33;;;;;;;;;;;8.10;99.90;;;;;;8379119;28;20359;-72
2022/01/29 22:56:35;;;;;;;;;;;8.00;99.90;;;;;;8372838;28;20342;-72
2022/01/29 23:00:37;;;;;;;;;;;8.00;99.90;;;;;;8389626;28;20412;-72
2022/01/29 23:04:39;;;;;;;;;;;7.90;99.90;;;;;;8390321;28;20342;-72
2022/01/29 23:08:41;;;;;;;;;;;7.90;99.90;;;;;;8391335;28;19924;-72
2022/01/29 23:16:55;;;;;;;;;;;7.80;99.90;;;;;;8396528;28;19931;-72
2022/01/29 23:21:06;;;;;;;;;;;7.80;99.90;;;;;;8391261;28;20324;-72
2022/01/29 23:25:10;;;;;;;;;;;7.80;99.90;;;;;;8385645;28;19929;-72
2022/01/29 23:29:20;;;;;;;;;;;7.70;99.90;;;;;;8391257;28;19990;-72
2022/01/29 23:37:42;;;;;;;;;;;7.70;99.90;;;;;;8389422;28;19924;-72
2022/01/29 23:45:55;;;;;;;;;;;7.60;99.90;;;;;;8392773;28;20039;-72
2022/01/29 23:49:57;;;;;;;;;;;7.60;99.90;;;;;;8389340;28;19924;-72
2022/01/29 23:53:59;;;;;;;;;;;7.60;99.90;;;;;;8391864;28;19971;-72
2022/01/29 23:58:00;;;;;;;;;;;7.60;99.90;;;;;;8381907;28;20063;-72
